Time;durP1;ratioP1;P1;durP2;ratioP2;P2;SDS_P1;SDS_P2;PMS_P1;PMS_P2;Temp;Humidity;BMP_temperature;BMP_pressure;BME280_temperature;BME280_humidity;BME280_pressure;Samples;Min_cycle;Max_cycle;Signal;HPM_P1;HPM_P2
2023/04/29 00:00:05;;;;;;;2.70;0.95;;;;;;;;;;5016801;28;20352;-70
2023/04/29 00:02:31;;;;;;;4.28;1.13;;;;;;;;;;5000009;28;20815;-70
2023/04/29 00:04:57;;;;;;;5.38;1.20;;;;;;;;;;5018172;28;20715;-68
2023/04/29 00:07:23;;;;;;;3.78;1.10;;;;;;;;;;5017014;28;20115;-70
2023/04/29 00:09:50;;;;;;;3.72;1.05;;;;;;;;;;5015532;28;20630;-68
2023/04/29 00:12:16;;;;;;;3.88;1.00;;;;;;;;;;5018713;28;20036;-69
2023/04/29 00:14:42;;;;;;;3.10;0.95;;;;;;;;;;5015902;28;20032;-71
2023/04/29 00:17:09;;;;;;;3.97;1.00;;;;;;;;;;5016537;28;20120;-69
2023/04/29 00:19:36;;;;;;;1.98;0.80;;;;;;;;;;5020269;28;20045;-70
2023/04/29 00:22:02;;;;;;;4.85;1.00;;;;;;;;;;5021783;28;20041;-69
2023/04/29 00:24:29;;;;;;;5.03;0.90;;;;;;;;;;5017328;28;20377;-68
2023/04/29 00:26:55;;;;;;;2.83;0.93;;;;;;;;;;5017043;28;20124;-68
2023/04/29 00:29:22;;;;;;;4.43;1.10;;;;;;;;;;5020360;28;20833;-68
2023/04/29 00:31:49;;;;;;;5.10;1.20;;;;;;;;;;5017706;28;20032;-68
2023/04/29 00:34:15;;;;;;;4.20;1.00;;;;;;;;;;5022705;28;20402;-68
2023/04/29 00:36:41;;;;;;;4.72;1.33;;;;;;;;;;5014676;28;20938;-68
2023/04/29 00:39:07;;;;;;;5.30;1.20;;;;;;;;;;5002161;28;20029;-69
2023/04/29 00:41:33;;;;;;;4.30;1.00;;;;;;;;;;5012819;28;20037;-68
2023/04/29 00:44:00;;;;;;;3.80;1.10;;;;;;;;;;5020841;28;20041;-68
2023/04/29 00:46:26;;;;;;;5.22;1.30;;;;;;;;;;5014329;28;20058;-68
2023/04/29 00:48:52;;;;;;;4.28;1.10;;;;;;;;;;5017152;28;20032;-68
2023/04/29 00:51:18;;;;;;;4.15;1.05;;;;;;;;;;5017003;28;20030;-69
2023/04/29 00:53:44;;;;;;;4.78;1.10;;;;;;;;;;5013453;28;20091;-69
2023/04/29 00:56:13;;;;;;;4.18;1.00;;;;;;;;;;5012758;28;20022;-69
2023/04/29 00:58:40;;;;;;;3.25;0.90;;;;;;;;;;5015974;28;20017;-69
2023/04/29 01:01:06;;;;;;;4.90;1.08;;;;;;;;;;5002437;28;20033;-69
2023/04/29 01:03:32;;;;;;;2.95;0.90;;;;;;;;;;5017526;28;20754;-69
2023/04/29 01:06:07;;;;;;;2.47;0.90;;;;;;;;;;5004044;28;20034;-69
2023/04/29 01:08:37;;;;;;;2.73;0.70;;;;;;;;;;5011354;28;20249;-68
2023/04/29 01:11:15;;;;;;;5.22;1.17;;;;;;;;;;5018215;28;20036;-69
2023/04/29 01:13:44;;;;;;;3.03;1.00;;;;;;;;;;5014694;28;20029;-69
2023/04/29 01:16:19;;;;;;;2.35;0.85;;;;;;;;;;5018675;28;20080;-68
2023/04/29 01:18:49;;;;;;;3.55;0.95;;;;;;;;;;4992935;28;20506;-71
2023/04/29 01:21:15;;;;;;;3.05;0.90;;;;;;;;;;4999198;28;20041;-69
2023/04/29 01:23:43;;;;;;;3.65;1.00;;;;;;;;;;4993260;28;20277;-68
2023/04/29 01:26:10;;;;;;;4.53;0.80;;;;;;;;;;5000268;28;20534;-69
2023/04/29 01:28:36;;;;;;;4.03;1.00;;;;;;;;;;4998550;28;20029;-69
2023/04/29 01:31:12;;;;;;;4.53;1.00;;;;;;;;;;4996584;28;20037;-69
2023/04/29 01:33:48;;;;;;;4.10;1.20;;;;;;;;;;4991987;28;20029;-69
2023/04/29 01:36:23;;;;;;;4.10;1.08;;;;;;;;;;5000552;28;20543;-69
2023/04/29 01:38:51;;;;;;;3.53;0.90;;;;;;;;;;4995362;28;20356;-69
2023/04/29 01:41:22;;;;;;;4.10;0.88;;;;;;;;;;4999888;28;20191;-69
2023/04/29 01:43:50;;;;;;;5.75;0.90;;;;;;;;;;4995049;28;20474;-69
2023/04/29 01:46:20;;;;;;;4.20;1.05;;;;;;;;;;4998550;28;20037;-69
2023/04/29 01:48:46;;;;;;;3.63;0.98;;;;;;;;;;4999233;28;20545;-69
2023/04/29 01:51:13;;;;;;;3.28;0.90;;;;;;;;;;4997321;28;20542;-69
2023/04/29 01:53:42;;;;;;;2.08;0.80;;;;;;;;;;4995505;28;20472;-69
2023/04/29 01:56:08;;;;;;;3.83;0.90;;;;;;;;;;4993448;28;20606;-69
2023/04/29 01:58:34;;;;;;;4.00;1.00;;;;;;;;;;4998517;28;20034;-69
2023/04/29 02:01:01;;;;;;;3.35;1.10;;;;;;;;;;4998175;28;20244;-69
2023/04/29 02:03:30;;;;;;;3.78;0.60;;;;;;;;;;4997803;28;20623;-68
2023/04/29 02:05:57;;;;;;;2.47;0.80;;;;;;;;;;5001491;28;20037;-68
2023/04/29 02:08:23;;;;;;;2.95;0.85;;;;;;;;;;4998855;28;20029;-68
2023/04/29 02:10:57;;;;;;;2.58;0.80;;;;;;;;;;4997048;28;20038;-69
2023/04/29 02:13:23;;;;;;;3.25;0.80;;;;;;;;;;4999952;28;20035;-68
2023/04/29 02:15:49;;;;;;;4.10;1.02;;;;;;;;;;4991083;28;20077;-68
2023/04/29 02:18:15;;;;;;;3.05;0.85;;;;;;;;;;5009619;28;20604;-69
2023/04/29 02:20:42;;;;;;;3.47;0.85;;;;;;;;;;5014268;28;20052;-69
2023/04/29 02:23:08;;;;;;;2.28;0.80;;;;;;;;;;5005232;28;20029;-68
2023/04/29 02:25:35;;;;;;;2.72;0.80;;;;;;;;;;5001210;28;20040;-70
2023/04/29 02:28:01;;;;;;;2.15;0.60;;;;;;;;;;5019777;28;20021;-69
2023/04/29 02:30:27;;;;;;;1.83;0.60;;;;;;;;;;5001575;28;20124;-70
2023/04/29 02:32:54;;;;;;;2.90;0.82;;;;;;;;;;5013817;28;20033;-69
2023/04/29 02:35:20;;;;;;;5.35;0.80;;;;;;;;;;5019603;28;20032;-68
2023/04/29 02:37:46;;;;;;;3.05;1.00;;;;;;;;;;5014592;28;20545;-68
2023/04/29 02:40:12;;;;;;;3.97;0.73;;;;;;;;;;5002710;28;20873;-68
2023/04/29 02:42:39;;;;;;;3.05;0.90;;;;;;;;;;5015127;28;20044;-68
2023/04/29 02:45:05;;;;;;;2.15;0.80;;;;;;;;;;5018130;28;20086;-69
2023/04/29 02:47:32;;;;;;;2.70;0.57;;;;;;;;;;5012997;28;20061;-70
2023/04/29 02:49:58;;;;;;;2.83;0.80;;;;;;;;;;5019340;28;20065;-70
2023/04/29 02:52:24;;;;;;;4.38;0.85;;;;;;;;;;5016875;28;20135;-69
2023/04/29 02:54:50;;;;;;;1.77;0.70;;;;;;;;;;5011175;28;20028;-70
2023/04/29 02:57:17;;;;;;;3.72;0.80;;;;;;;;;;5017872;28;20443;-70
2023/04/29 02:59:43;;;;;;;3.72;0.80;;;;;;;;;;5014506;28;20047;-70
2023/04/29 03:02:09;;;;;;;2.97;0.73;;;;;;;;;;4989404;28;20057;-70
2023/04/29 03:04:35;;;;;;;2.88;0.82;;;;;;;;;;5014710;28;20033;-68
2023/04/29 03:07:01;;;;;;;2.63;0.70;;;;;;;;;;5012817;28;20775;-70
2023/04/29 03:09:27;;;;;;;3.50;0.85;;;;;;;;;;5007970;28;20081;-70
2023/04/29 03:11:54;;;;;;;4.35;0.70;;;;;;;;;;5018246;28;20128;-69
2023/04/29 03:14:20;;;;;;;3.13;0.80;;;;;;;;;;5015962;28;20033;-69
2023/04/29 03:16:46;;;;;;;1.92;0.70;;;;;;;;;;5002606;28;20335;-69
2023/04/29 03:19:12;;;;;;;4.72;0.80;;;;;;;;;;5014935;28;20080;-69
2023/04/29 03:21:39;;;;;;;2.63;0.73;;;;;;;;;;5005142;28;20323;-68
2023/04/29 03:24:05;;;;;;;3.63;0.80;;;;;;;;;;5022516;28;20514;-68
2023/04/29 03:26:31;;;;;;;2.95;0.70;;;;;;;;;;5017575;28;20266;-68
2023/04/29 03:28:57;;;;;;;5.65;0.80;;;;;;;;;;5023109;28;20334;-68
2023/04/29 03:31:26;;;;;;;2.30;0.75;;;;;;;;;;5002424;28;20658;-69
2023/04/29 03:33:52;;;;;;;2.13;0.80;;;;;;;;;;5019381;28;20033;-69
2023/04/29 03:36:21;;;;;;;3.17;0.70;;;;;;;;;;5020777;28;20028;-69
2023/04/29 03:38:47;;;;;;;1.50;0.60;;;;;;;;;;5001634;28;20032;-69
2023/04/29 03:41:13;;;;;;;2.55;0.70;;;;;;;;;;5017091;28;20033;-69
2023/04/29 03:43:42;;;;;;;2.50;0.80;;;;;;;;;;5017087;28;20127;-69
2023/04/29 03:46:09;;;;;;;3.00;0.80;;;;;;;;;;5018279;28;20095;-69
2023/04/29 03:48:35;;;;;;;2.95;0.90;;;;;;;;;;5020103;28;20063;-69
2023/04/29 03:51:02;;;;;;;3.22;0.73;;;;;;;;;;5019495;28;20051;-69
2023/04/29 03:53:28;;;;;;;3.60;0.90;;;;;;;;;;5018500;28;20041;-69
2023/04/29 03:55:54;;;;;;;3.13;0.70;;;;;;;;;;5020863;28;20044;-69
2023/04/29 03:58:22;;;;;;;6.00;0.80;;;;;;;;;;5014337;28;20551;-69
2023/04/29 04:00:48;;;;;;;4.05;0.70;;;;;;;;;;5016393;28;21219;-69
2023/04/29 04:03:14;;;;;;;5.00;0.95;;;;;;;;;;5025955;28;20460;-69
2023/04/29 04:05:40;;;;;;;4.70;0.90;;;;;;;;;;5001379;28;20055;-69
2023/04/29 04:08:07;;;;;;;4.13;1.00;;;;;;;;;;5003685;28;20046;-69
2023/04/29 04:10:33;;;;;;;2.75;0.88;;;;;;;;;;5010502;28;20572;-71
2023/04/29 04:12:59;;;;;;;3.28;1.10;;;;;;;;;;5013336;28;20067;-68
2023/04/29 04:15:26;;;;;;;5.13;1.00;;;;;;;;;;5020339;28;20490;-68
2023/04/29 04:17:52;;;;;;;6.10;1.00;;;;;;;;;;5001865;28;20037;-69
2023/04/29 04:20:18;;;;;;;3.90;1.13;;;;;;;;;;5007578;28;20072;-69
2023/04/29 04:22:44;;;;;;;3.13;0.77;;;;;;;;;;5000005;28;20020;-69
2023/04/29 04:25:11;;;;;;;4.95;1.08;;;;;;;;;;5000185;28;20060;-69
2023/04/29 04:27:37;;;;;;;4.78;1.00;;;;;;;;;;5012448;28;20434;-69
2023/04/29 04:30:03;;;;;;;2.42;0.85;;;;;;;;;;5001633;28;20899;-69
2023/04/29 04:32:29;;;;;;;3.97;1.10;;;;;;;;;;5017497;28;20033;-68
2023/04/29 04:34:56;;;;;;;4.22;1.20;;;;;;;;;;5017472;28;20570;-69
2023/04/29 04:37:22;;;;;;;7.47;1.33;;;;;;;;;;5019602;28;20028;-70
2023/04/29 04:39:48;;;;;;;4.88;1.30;;;;;;;;;;5012680;28;20035;-69
2023/04/29 04:42:14;;;;;;;6.22;1.23;;;;;;;;;;5014924;28;20033;-69
2023/04/29 04:44:40;;;;;;;5.07;1.27;;;;;;;;;;5015764;28;20033;-69
2023/04/29 04:47:06;;;;;;;4.75;1.27;;;;;;;;;;5015775;28;21683;-69
2023/04/29 04:49:33;;;;;;;5.80;1.38;;;;;;;;;;5022091;28;20036;-69
2023/04/29 04:51:59;;;;;;;5.95;1.38;;;;;;;;;;5022474;28;20428;-69
2023/04/29 04:54:25;;;;;;;7.88;1.33;;;;;;;;;;5003839;28;20265;-69
2023/04/29 04:56:51;;;;;;;4.30;1.20;;;;;;;;;;4999994;28;20025;-69
2023/04/29 04:59:17;;;;;;;3.97;1.02;;;;;;;;;;5020364;28;20476;-69
2023/04/29 05:01:43;;;;;;;4.22;1.30;;;;;;;;;;5015225;28;20029;-69
2023/04/29 05:04:09;;;;;;;5.53;1.52;;;;;;;;;;5019130;28;20091;-69
2023/04/29 05:06:36;;;;;;;8.55;1.67;;;;;;;;;;5013130;28;20037;-69
2023/04/29 05:09:02;;;;;;;5.55;1.20;;;;;;;;;;5017562;28;20026;-69
2023/04/29 05:11:28;;;;;;;8.68;1.30;;;;;;;;;;5013776;28;20479;-71
2023/04/29 05:13:54;;;;;;;4.97;1.05;;;;;;;;;;5022913;28;20415;-69
2023/04/29 05:16:20;;;;;;;7.13;1.60;;;;;;;;;;5018978;28;20102;-69
2023/04/29 05:18:47;;;;;;;8.70;1.77;;;;;;;;;;5015632;28;20041;-69
2023/04/29 05:21:13;;;;;;;7.65;2.33;;;;;;;;;;5016470;28;20746;-69
2023/04/29 05:23:39;;;;;;;8.27;2.17;;;;;;;;;;5019152;28;20033;-70
2023/04/29 05:26:05;;;;;;;7.05;1.83;;;;;;;;;;5021792;28;20029;-70
2023/04/29 05:28:31;;;;;;;7.07;1.65;;;;;;;;;;5013134;28;20062;-69
2023/04/29 05:30:57;;;;;;;8.70;2.00;;;;;;;;;;5003074;28;20041;-69
2023/04/29 05:33:23;;;;;;;7.47;2.20;;;;;;;;;;5005644;28;20550;-69
2023/04/29 05:35:49;;;;;;;7.60;2.55;;;;;;;;;;5016201;28;20553;-69
2023/04/29 05:38:16;;;;;;;8.05;2.55;;;;;;;;;;5004332;28;20024;-68
2023/04/29 05:40:42;;;;;;;8.23;2.83;;;;;;;;;;4999247;28;20838;-69
2023/04/29 05:43:08;;;;;;;7.47;2.75;;;;;;;;;;5016089;28;20105;-68
2023/04/29 05:45:34;;;;;;;7.20;2.67;;;;;;;;;;5003745;28;20036;-69
2023/04/29 05:48:00;;;;;;;8.85;2.60;;;;;;;;;;5003498;28;20044;-69
2023/04/29 05:50:27;;;;;;;9.52;2.50;;;;;;;;;;5019262;28;20601;-69
2023/04/29 05:52:55;;;;;;;9.20;2.92;;;;;;;;;;5022306;28;20036;-69
2023/04/29 05:55:21;;;;;;;10.73;2.60;;;;;;;;;;5017767;28;20025;-68
2023/04/29 05:57:47;;;;;;;7.45;2.75;;;;;;;;;;5007209;28;20037;-71
2023/04/29 06:00:13;;;;;;;9.30;2.75;;;;;;;;;;5021394;28;20029;-70
2023/04/29 06:02:41;;;;;;;7.60;2.38;;;;;;;;;;5014192;28;20572;-70
2023/04/29 06:05:08;;;;;;;7.85;2.22;;;;;;;;;;5016985;28;20033;-70
2023/04/29 06:07:35;;;;;;;8.07;2.05;;;;;;;;;;5012186;28;20047;-70
2023/04/29 06:10:01;;;;;;;8.35;2.22;;;;;;;;;;5020251;28;20199;-70
2023/04/29 06:12:27;;;;;;;8.13;2.70;;;;;;;;;;5000206;28;20090;-68
2023/04/29 06:14:53;;;;;;;25.80;11.77;;;;;;;;;;5015797;28;20021;-70
2023/04/29 06:17:19;;;;;;;22.27;10.98;;;;;;;;;;5002558;28;20483;-68
2023/04/29 06:19:46;;;;;;;20.90;10.43;;;;;;;;;;5015226;28;20051;-68
2023/04/29 06:22:12;;;;;;;19.38;9.68;;;;;;;;;;5003708;28;20095;-70
2023/04/29 06:24:38;;;;;;;15.27;7.22;;;;;;;;;;5015671;28;20041;-69
2023/04/29 06:27:04;;;;;;;14.15;6.03;;;;;;;;;;5017192;28;20033;-69
2023/04/29 06:29:30;;;;;;;19.38;6.88;;;;;;;;;;5015110;28;20060;-68
2023/04/29 06:31:56;;;;;;;17.88;6.72;;;;;;;;;;5015860;28;20249;-69
2023/04/29 06:34:23;;;;;;;19.80;6.50;;;;;;;;;;5014845;28;20037;-68
2023/04/29 06:36:49;;;;;;;18.98;5.90;;;;;;;;;;5014260;28;20379;-69
2023/04/29 06:39:15;;;;;;;13.93;4.03;;;;;;;;;;5014937;28;20280;-68
2023/04/29 06:41:41;;;;;;;13.73;4.00;;;;;;;;;;5009333;28;20100;-68
2023/04/29 06:44:07;;;;;;;18.25;3.85;;;;;;;;;;5017483;28;20502;-70
2023/04/29 06:46:34;;;;;;;17.85;4.15;;;;;;;;;;5014480;28;20032;-68
2023/04/29 06:49:00;;;;;;;12.27;2.83;;;;;;;;;;5019238;28;20036;-70
2023/04/29 06:51:27;;;;;;;9.63;2.30;;;;;;;;;;5002349;28;20573;-69
2023/04/29 06:53:54;;;;;;;14.77;3.30;;;;;;;;;;5016157;28;20140;-68
2023/04/29 06:56:20;;;;;;;12.43;3.55;;;;;;;;;;5014938;28;20022;-69
2023/04/29 06:58:46;;;;;;;11.02;3.30;;;;;;;;;;4998973;28;20029;-69
2023/04/29 07:01:13;;;;;;;18.88;4.38;;;;;;;;;;5019538;28;20021;-69
2023/04/29 07:03:39;;;;;;;13.82;4.22;;;;;;;;;;5016033;28;20162;-68
2023/04/29 07:06:05;;;;;;;19.05;4.93;;;;;;;;;;5021430;28;20777;-67
2023/04/29 07:08:32;;;;;;;14.75;4.63;;;;;;;;;;5017532;28;20090;-69
2023/04/29 07:10:58;;;;;;;14.23;4.50;;;;;;;;;;5013473;28;20036;-70
2023/04/29 07:13:25;;;;;;;15.25;4.63;;;;;;;;;;5017113;28;20021;-70
2023/04/29 07:15:51;;;;;;;15.48;4.35;;;;;;;;;;5015452;28;20060;-70
2023/04/29 07:18:17;;;;;;;12.00;4.20;;;;;;;;;;5000965;28;20048;-69
2023/04/29 07:20:44;;;;;;;25.95;5.32;;;;;;;;;;5017465;28;20039;-70
2023/04/29 07:23:11;;;;;;;29.80;7.53;;;;;;;;;;5021649;28;20028;-67
2023/04/29 07:25:37;;;;;;;17.08;5.55;;;;;;;;;;5017805;28;20540;-69
2023/04/29 07:28:03;;;;;;;16.65;4.13;;;;;;;;;;5000916;28;20477;-68
2023/04/29 07:30:29;;;;;;;17.73;5.00;;;;;;;;;;5015577;28;20136;-68
2023/04/29 07:32:56;;;;;;;11.63;3.92;;;;;;;;;;5004762;28;20211;-69
2023/04/29 07:35:22;;;;;;;13.70;4.90;;;;;;;;;;5018674;28;20586;-68
2023/04/29 07:37:49;;;;;;;11.18;4.97;;;;;;;;;;4999145;28;20101;-68
2023/04/29 07:40:15;;;;;;;11.98;3.97;;;;;;;;;;5017235;28;20032;-70
2023/04/29 07:42:41;;;;;;;17.05;4.10;;;;;;;;;;5012219;28;20437;-69
2023/04/29 07:45:07;;;;;;;14.05;4.13;;;;;;;;;;5019834;28;20036;-69
2023/04/29 07:47:33;;;;;;;11.20;4.25;;;;;;;;;;5012404;28;20026;-69
2023/04/29 07:50:00;;;;;;;13.70;6.32;;;;;;;;;;5020760;28;20047;-69
2023/04/29 07:52:26;;;;;;;16.80;5.10;;;;;;;;;;5015989;28;20033;-69
2023/04/29 07:54:55;;;;;;;11.70;4.40;;;;;;;;;;5016609;28;20052;-70
2023/04/29 07:57:21;;;;;;;15.38;4.40;;;;;;;;;;5019119;28;20047;-70
2023/04/29 07:59:51;;;;;;;15.10;4.60;;;;;;;;;;5000655;28;20037;-70
2023/04/29 08:02:17;;;;;;;11.02;3.80;;;;;;;;;;5016950;28;20428;-69
2023/04/29 08:04:43;;;;;;;11.38;3.80;;;;;;;;;;5017950;28;20032;-70
2023/04/29 08:07:10;;;;;;;9.05;3.17;;;;;;;;;;5002586;28;20029;-69
2023/04/29 08:09:36;;;;;;;9.68;3.30;;;;;;;;;;5017983;28;20047;-69
2023/04/29 08:12:02;;;;;;;10.60;3.28;;;;;;;;;;5005560;28;20127;-70
2023/04/29 08:14:28;;;;;;;9.98;2.92;;;;;;;;;;5014217;28;20033;-70
2023/04/29 08:16:54;;;;;;;9.85;3.28;;;;;;;;;;5021571;28;20515;-70
2023/04/29 08:19:21;;;;;;;9.30;2.88;;;;;;;;;;5017356;28;20068;-69
2023/04/29 08:21:47;;;;;;;11.82;3.58;;;;;;;;;;5017038;28;20033;-69
2023/04/29 08:24:13;;;;;;;11.05;3.97;;;;;;;;;;5018646;28;20537;-69
2023/04/29 08:26:41;;;;;;;12.02;4.35;;;;;;;;;;5011596;28;20344;-70
2023/04/29 08:29:07;;;;;;;13.55;4.93;;;;;;;;;;5014682;28;20538;-69
2023/04/29 08:31:33;;;;;;;19.80;5.47;;;;;;;;;;5013901;28;20324;-69
2023/04/29 08:33:59;;;;;;;62.38;11.68;;;;;;;;;;5020910;28;20029;-70
2023/04/29 08:36:27;;;;;;;21.90;7.78;;;;;;;;;;5001162;28;20083;-69
2023/04/29 08:38:53;;;;;;;22.65;7.28;;;;;;;;;;5000034;28;20478;-69
2023/04/29 08:41:19;;;;;;;17.42;6.00;;;;;;;;;;5000450;28;20033;-67
2023/04/29 08:43:46;;;;;;;16.42;5.65;;;;;;;;;;5000088;28;20040;-68
2023/04/29 08:46:12;;;;;;;13.82;5.18;;;;;;;;;;5024285;28;20033;-68
2023/04/29 08:48:39;;;;;;;16.98;5.50;;;;;;;;;;4997904;28;20301;-70
2023/04/29 08:51:05;;;;;;;16.33;5.40;;;;;;;;;;5020617;28;20489;-67
2023/04/29 08:53:32;;;;;;;14.55;4.72;;;;;;;;;;5015798;28;20536;-67
2023/04/29 08:56:02;;;;;;;18.92;5.25;;;;;;;;;;4995187;28;20025;-69
2023/04/29 08:58:29;;;;;;;16.15;4.93;;;;;;;;;;5016150;28;20132;-69
2023/04/29 09:00:56;;;;;;;14.57;5.30;;;;;;;;;;4999973;28;20135;-69
2023/04/29 09:03:36;;;;;;;21.23;4.68;;;;;;;;;;5017339;28;20458;-69
2023/04/29 09:06:03;;;;;;;12.02;4.07;;;;;;;;;;5015539;28;20098;-69
2023/04/29 09:08:29;;;;;;;16.23;5.47;;;;;;;;;;4997997;28;20029;-69
2023/04/29 09:10:56;;;;;;;11.70;4.50;;;;;;;;;;5002921;28;20534;-69
2023/04/29 09:13:29;;;;;;;17.23;5.03;;;;;;;;;;5017758;28;20037;-69
2023/04/29 09:15:56;;;;;;;13.40;4.57;;;;;;;;;;5013360;28;20117;-69
2023/04/29 09:18:57;;;;;;;13.43;4.05;;;;;;;;;;5018664;28;20099;-69
2023/04/29 09:21:26;;;;;;;15.20;4.70;;;;;;;;;;4976210;28;20523;-70
2023/04/29 09:23:53;;;;;;;15.43;4.38;;;;;;;;;;4975212;28;20034;-69
2023/04/29 09:26:19;;;;;;;14.57;4.75;;;;;;;;;;4976307;28;20041;-69
2023/04/29 09:28:46;;;;;;;15.88;5.13;;;;;;;;;;4974184;28;20057;-70
2023/04/29 09:31:13;;;;;;;13.25;5.47;;;;;;;;;;4975521;28;20042;-70
2023/04/29 09:33:52;;;;;;;14.63;5.53;;;;;;;;;;4975538;28;20033;-68
2023/04/29 09:36:38;;;;;;;13.38;5.55;;;;;;;;;;4976724;28;20168;-70
2023/04/29 09:39:11;;;;;;;16.47;5.90;;;;;;;;;;4975700;28;20040;-69
2023/04/29 09:41:52;;;;;;;17.92;7.60;;;;;;;;;;4974364;28;20042;-68
2023/04/29 09:44:39;;;;;;;29.02;10.75;;;;;;;;;;4976932;28;21559;-67
2023/04/29 09:47:05;;;;;;;;;;;;;;;;;;4942706;28;20564;-67
2023/04/29 09:49:34;;;;;;;84.10;17.45;;;;;;;;;;4917343;28;20502;-68
2023/04/29 09:52:01;;;;;;;88.38;16.83;;;;;;;;;;4922012;28;20035;-68
2023/04/29 09:54:28;;;;;;;42.75;11.13;;;;;;;;;;4936960;28;20039;-68
2023/04/29 09:56:55;;;;;;;149.50;23.10;;;;;;;;;;4939773;28;20026;-69
2023/04/29 09:59:21;;;;;;;70.70;15.02;;;;;;;;;;4940219;28;20046;-68
2023/04/29 10:01:51;;;;;;;43.10;10.40;;;;;;;;;;4937919;28;21329;-69
2023/04/29 10:04:18;;;;;;;21.33;6.93;;;;;;;;;;4936799;28;20439;-68
2023/04/29 10:06:45;;;;;;;13.45;5.68;;;;;;;;;;4954816;28;20698;-68
2023/04/29 10:09:15;;;;;;;15.40;5.20;;;;;;;;;;4955849;28;20034;-69
2023/04/29 10:11:42;;;;;;;18.58;5.90;;;;;;;;;;4935725;28;20058;-68
2023/04/29 10:14:12;;;;;;;16.50;5.10;;;;;;;;;;4957127;28;20833;-69
2023/04/29 10:16:40;;;;;;;13.82;5.18;;;;;;;;;;4935685;28;20506;-69
2023/04/29 10:19:10;;;;;;;14.48;5.30;;;;;;;;;;4956419;28;20050;-69
2023/04/29 10:21:37;;;;;;;11.48;4.47;;;;;;;;;;4952690;28;20045;-69
2023/04/29 10:24:03;;;;;;;11.27;3.20;;;;;;;;;;4980388;28;20554;-68
2023/04/29 10:26:30;;;;;;;11.10;3.38;;;;;;;;;;4994934;28;20386;-68
2023/04/29 10:28:58;;;;;;;13.10;3.50;;;;;;;;;;4995164;28;20044;-68
2023/04/29 10:31:31;;;;;;;8.93;2.08;;;;;;;;;;5013633;28;20115;-68
2023/04/29 10:33:59;;;;;;;8.35;2.38;;;;;;;;;;5014831;28;20514;-69
2023/04/29 10:36:27;;;;;;;11.23;2.60;;;;;;;;;;5014104;28;20028;-68
2023/04/29 10:38:55;;;;;;;12.27;2.80;;;;;;;;;;5014468;28;20113;-69
2023/04/29 10:41:24;;;;;;;9.13;2.78;;;;;;;;;;5012930;28;20065;-69
2023/04/29 10:43:53;;;;;;;10.48;3.58;;;;;;;;;;5018298;28;20021;-68
2023/04/29 10:46:25;;;;;;;10.68;4.38;;;;;;;;;;4998326;28;20037;-70
2023/04/29 10:48:54;;;;;;;11.70;4.65;;;;;;;;;;5013044;28;20529;-68
2023/04/29 10:51:39;;;;;;;17.92;5.45;;;;;;;;;;5018833;28;20694;-68
2023/04/29 10:54:05;;;;;;;;;;;;;;;;;;5019699;28;20082;-68
2023/04/29 10:56:39;;;;;;;16.55;5.80;;;;;;;;;;5008946;28;19916;-69
2023/04/29 10:59:05;;;;;;;11.02;4.72;;;;;;;;;;5002030;28;20526;-68
2023/04/29 11:01:48;;;;;;;13.20;5.43;;;;;;;;;;5010036;28;20512;-69
2023/04/29 11:04:14;;;;;;;16.85;5.85;;;;;;;;;;5011150;28;20680;-71
2023/04/29 11:06:42;;;;;;;11.63;5.03;;;;;;;;;;4995862;28;21239;-69
2023/04/29 11:09:13;;;;;;;15.80;5.55;;;;;;;;;;4997157;28;20044;-68
2023/04/29 11:11:47;;;;;;;12.82;5.25;;;;;;;;;;5012046;28;20025;-69
2023/04/29 11:14:14;;;;;;;11.82;4.47;;;;;;;;;;5013104;28;20029;-69
2023/04/29 11:16:48;;;;;;;14.32;3.97;;;;;;;;;;4995736;28;20033;-69
2023/04/29 11:19:15;;;;;;;16.75;4.47;;;;;;;;;;5016872;28;20071;-67
2023/04/29 11:21:41;;;;;;;17.17;4.47;;;;;;;;;;4996090;28;20042;-70
2023/04/29 11:24:07;;;;;;;45.42;7.35;;;;;;;;;;5015071;28;20075;-70
2023/04/29 11:26:34;;;;;;;37.67;7.13;;;;;;;;;;5013192;28;20460;-68
2023/04/29 11:29:00;;;;;;;103.22;13.38;;;;;;;;;;5016426;28;20060;-70
2023/04/29 11:31:33;;;;;;;31.17;6.60;;;;;;;;;;5014868;28;20040;-70
2023/04/29 11:33:59;;;;;;;49.35;8.05;;;;;;;;;;5014476;28;20033;-69
2023/04/29 11:36:26;;;;;;;13.65;3.25;;;;;;;;;;5016829;28;20029;-68
2023/04/29 11:38:52;;;;;;;15.07;3.47;;;;;;;;;;5016477;28;20115;-68
2023/04/29 11:41:20;;;;;;;10.45;2.70;;;;;;;;;;5021620;28;20431;-68
2023/04/29 11:43:46;;;;;;;8.13;2.80;;;;;;;;;;5016675;28;20024;-68
2023/04/29 11:46:13;;;;;;;24.00;4.28;;;;;;;;;;5020059;28;20040;-68
2023/04/29 11:48:48;;;;;;;10.00;2.67;;;;;;;;;;5014434;28;20037;-68
2023/04/29 11:51:15;;;;;;;17.27;3.30;;;;;;;;;;5021917;28;20147;-68
2023/04/29 11:53:42;;;;;;;15.25;3.22;;;;;;;;;;4998501;28;20486;-69
2023/04/29 11:56:09;;;;;;;27.73;3.72;;;;;;;;;;5018406;28;20025;-69
2023/04/29 11:58:36;;;;;;;14.38;2.55;;;;;;;;;;5014890;28;20029;-69
2023/04/29 12:01:05;;;;;;;20.83;3.22;;;;;;;;;;5003464;28;20119;-68
2023/04/29 12:03:32;;;;;;;24.33;3.03;;;;;;;;;;5010039;28;20092;-68
2023/04/29 12:05:58;;;;;;;10.60;2.90;;;;;;;;;;5017875;28;20526;-69
2023/04/29 12:08:25;;;;;;;17.92;3.17;;;;;;;;;;5003101;28;20083;-69
2023/04/29 12:10:52;;;;;;;11.60;2.50;;;;;;;;;;5018684;28;20544;-68
2023/04/29 12:13:19;;;;;;;8.55;2.67;;;;;;;;;;5019919;28;20049;-69
2023/04/29 12:15:46;;;;;;;13.30;2.72;;;;;;;;;;4999816;28;20652;-67
2023/04/29 12:18:12;;;;;;;8.82;2.72;;;;;;;;;;5018486;28;20059;-69
2023/04/29 12:20:39;;;;;;;12.13;2.55;;;;;;;;;;5018434;28;20579;-69
2023/04/29 12:23:12;;;;;;;8.05;2.30;;;;;;;;;;5021358;28;20024;-68
2023/04/29 12:25:40;;;;;;;12.48;2.60;;;;;;;;;;5016260;28;20082;-68
2023/04/29 12:28:11;;;;;;;26.88;4.00;;;;;;;;;;5003507;28;20040;-68
2023/04/29 12:30:37;;;;;;;12.15;3.47;;;;;;;;;;5014898;28;20119;-68
2023/04/29 12:33:05;;;;;;;15.90;3.58;;;;;;;;;;5014598;28;20885;-69
2023/04/29 12:35:31;;;;;;;21.48;4.18;;;;;;;;;;5014660;28;20025;-69
2023/04/29 12:37:58;;;;;;;20.20;4.53;;;;;;;;;;4996842;28;20956;-69
2023/04/29 12:40:25;;;;;;;16.67;4.90;;;;;;;;;;5015873;28;20375;-69
2023/04/29 12:42:53;;;;;;;13.02;4.25;;;;;;;;;;5015796;28;20033;-69
2023/04/29 12:45:34;;;;;;;13.27;3.38;;;;;;;;;;5006849;28;20750;-69
2023/04/29 12:48:01;;;;;;;9.43;3.55;;;;;;;;;;5020261;28;20032;-68
2023/04/29 12:50:34;;;;;;;10.68;2.67;;;;;;;;;;4997318;28;20029;-69
2023/04/29 12:53:02;;;;;;;12.25;2.83;;;;;;;;;;5019559;28;20029;-69
2023/04/29 12:55:28;;;;;;;8.10;2.40;;;;;;;;;;5013466;28;20495;-69
2023/04/29 12:57:54;;;;;;;10.45;2.25;;;;;;;;;;5019780;28;20021;-69
2023/04/29 13:00:21;;;;;;;10.25;2.40;;;;;;;;;;5018824;28;20194;-69
2023/04/29 13:02:47;;;;;;;7.43;2.00;;;;;;;;;;5002260;28;20454;-69
2023/04/29 13:05:13;;;;;;;7.65;2.20;;;;;;;;;;5016963;28;20033;-68
2023/04/29 13:07:40;;;;;;;6.30;1.55;;;;;;;;;;5015013;28;20075;-68
2023/04/29 13:10:07;;;;;;;6.72;1.58;;;;;;;;;;5018328;28;20056;-69
2023/04/29 13:12:33;;;;;;;8.13;2.10;;;;;;;;;;5014259;28;20459;-69
2023/04/29 13:14:59;;;;;;;8.18;1.98;;;;;;;;;;5020643;28;20041;-69
2023/04/29 13:17:25;;;;;;;10.48;2.30;;;;;;;;;;5001357;28;20220;-69
2023/04/29 13:19:51;;;;;;;8.65;1.92;;;;;;;;;;5014935;28;20258;-69
2023/04/29 13:22:18;;;;;;;8.13;1.70;;;;;;;;;;5014830;28;20041;-69
2023/04/29 13:24:45;;;;;;;12.60;2.03;;;;;;;;;;5013568;28;20059;-69
2023/04/29 13:27:11;;;;;;;10.05;2.10;;;;;;;;;;5017301;28;20029;-69
2023/04/29 13:29:37;;;;;;;9.20;2.13;;;;;;;;;;5015859;28;20029;-69
2023/04/29 13:32:04;;;;;;;11.93;2.40;;;;;;;;;;5016909;28;20139;-68
2023/04/29 13:34:30;;;;;;;15.18;2.63;;;;;;;;;;5016838;28;20024;-69
2023/04/29 13:36:56;;;;;;;11.52;2.53;;;;;;;;;;5001040;28;20128;-69
2023/04/29 13:39:23;;;;;;;9.80;2.28;;;;;;;;;;5025070;28;20341;-69
2023/04/29 13:41:50;;;;;;;9.98;2.20;;;;;;;;;;5014720;28;20098;-68
2023/04/29 13:44:17;;;;;;;16.85;2.53;;;;;;;;;;5019445;28;20360;-70
2023/04/29 13:46:45;;;;;;;8.57;2.05;;;;;;;;;;5004674;28;20032;-69
2023/04/29 13:49:11;;;;;;;9.38;1.88;;;;;;;;;;5017436;28;20395;-69
2023/04/29 13:51:37;;;;;;;9.95;1.80;;;;;;;;;;5019064;28;20270;-68
2023/04/29 13:54:03;;;;;;;9.50;1.83;;;;;;;;;;5019493;28;20060;-68
2023/04/29 13:56:29;;;;;;;9.63;1.95;;;;;;;;;;5016525;28;20039;-68
2023/04/29 13:58:55;;;;;;;7.50;1.63;;;;;;;;;;5016597;28;20032;-68
2023/04/29 14:01:22;;;;;;;9.65;1.88;;;;;;;;;;5023122;28;20394;-69
2023/04/29 14:03:49;;;;;;;7.13;1.73;;;;;;;;;;5015793;28;20033;-69
2023/04/29 14:06:15;;;;;;;8.40;2.00;;;;;;;;;;5020396;28;20037;-69
2023/04/29 14:08:41;;;;;;;10.30;1.80;;;;;;;;;;5011857;28;20057;-68
2023/04/29 14:11:07;;;;;;;7.57;1.70;;;;;;;;;;5019414;28;20033;-69
2023/04/29 14:13:33;;;;;;;9.55;1.73;;;;;;;;;;5010608;28;20033;-69
2023/04/29 14:16:02;;;;;;;6.68;1.60;;;;;;;;;;5018991;28;20068;-68
2023/04/29 14:18:29;;;;;;;5.72;1.60;;;;;;;;;;5016900;28;20141;-70
2023/04/29 14:20:56;;;;;;;6.70;1.60;;;;;;;;;;5018625;28;20087;-69
2023/04/29 14:23:23;;;;;;;6.55;1.30;;;;;;;;;;5020114;28;20343;-69
2023/04/29 14:25:49;;;;;;;5.90;1.70;;;;;;;;;;5002411;28;20136;-68
2023/04/29 14:28:15;;;;;;;8.82;2.28;;;;;;;;;;5018811;28;20056;-68
2023/04/29 14:30:42;;;;;;;7.82;1.90;;;;;;;;;;5016294;28;20025;-68
2023/04/29 14:33:08;;;;;;;7.30;1.75;;;;;;;;;;5017921;28;20157;-69
2023/04/29 14:35:35;;;;;;;8.27;2.10;;;;;;;;;;5017347;28;20037;-68
2023/04/29 14:38:01;;;;;;;8.95;2.13;;;;;;;;;;5001259;28;20021;-67